Time;durP1;ratioP1;P1;durP2;ratioP2;P2;SDS_P1;SDS_P2;PMS_P1;PMS_P2;Temp;Humidity;BMP_temperature;BMP_pressure;BME280_temperature;BME280_humidity;BME280_pressure;Samples;Min_cycle;Max_cycle;Signal;HPM_P1;HPM_P2
2022/05/12 00:04:08;;;;;;;3.20;2.00;;;;;;;22.27;37.10;99711.34;10372508;28;20053;-62
2022/05/12 00:09:10;;;;;;;5.05;1.50;;;;;;;22.22;36.73;99714.69;10372146;28;20120;-63
2022/05/12 00:14:11;;;;;;;3.38;1.67;;;;;;;22.19;37.34;99729.50;10370214;28;20050;-62
2022/05/12 00:19:13;;;;;;;4.75;1.90;;;;;;;22.15;37.39;99722.81;10370988;28;20060;-63
2022/05/12 00:24:16;;;;;;;4.95;2.22;;;;;;;22.03;37.77;99710.97;10376347;28;20158;-62
2022/05/12 00:29:18;;;;;;;2.65;1.45;;;;;;;21.96;37.97;99726.41;10370672;28;20123;-62
2022/05/12 00:34:20;;;;;;;3.05;1.15;;;;;;;21.92;38.17;99736.00;10369912;28;20049;-62
2022/05/12 00:39:22;;;;;;;2.38;1.45;;;;;;;21.92;38.49;99746.84;10370384;28;20061;-62
2022/05/12 00:44:23;;;;;;;2.20;1.52;;;;;;;21.83;39.45;99744.38;10370712;28;20423;-62
2022/05/12 00:49:35;;;;;;;2.72;1.80;;;;;;;21.70;39.41;99728.13;10385917;28;20049;-62
2022/05/12 00:55:06;;;;;;;2.67;1.55;;;;;;;21.63;39.50;99738.09;10368555;28;20512;-62
2022/05/12 01:00:11;;;;;;;3.72;1.38;;;;;;;21.63;40.03;99766.03;10370266;28;20045;-62
2022/05/12 01:05:14;;;;;;;1.52;1.20;;;;;;;21.59;40.48;99769.34;10368557;28;20577;-63
2022/05/12 01:10:15;;;;;;;2.40;1.10;;;;;;;21.48;40.29;99784.31;10369941;28;20625;-62
2022/05/12 01:15:21;;;;;;;3.38;1.30;;;;;;;21.43;40.60;99803.06;10368326;28;20075;-62
2022/05/12 01:20:25;;;;;;;2.78;1.35;;;;;;;21.39;41.23;99805.31;10366359;28;20595;-61
2022/05/12 01:25:29;;;;;;;2.42;1.30;;;;;;;21.41;41.78;99814.09;10365323;28;20045;-62
2022/05/12 01:30:30;;;;;;;2.10;1.13;;;;;;;21.32;41.56;99815.31;10366503;28;20742;-61
2022/05/12 01:35:32;;;;;;;4.43;1.45;;;;;;;21.21;42.04;99826.72;10370189;28;20746;-63
2022/05/12 01:40:33;;;;;;;4.57;1.17;;;;;;;21.17;42.75;99829.03;10369904;28;22777;-62
2022/05/12 01:45:35;;;;;;;2.20;1.27;;;;;;;21.06;43.43;99825.00;10369466;28;20057;-61
2022/05/12 01:50:38;;;;;;;3.25;1.17;;;;;;;21.11;43.44;99854.19;10370108;28;20128;-61
2022/05/12 01:55:41;;;;;;;2.88;1.27;;;;;;;21.05;43.10;99850.41;10369085;28;20101;-59
2022/05/12 02:00:42;;;;;;;1.88;1.25;;;;;;;21.06;43.36;99873.72;10374756;28;20132;-62
2022/05/12 02:05:44;;;;;;;1.67;1.00;;;;;;;20.85;44.57;99861.13;10389243;28;20065;-62
2022/05/12 02:10:49;;;;;;;1.33;1.02;;;;;;;20.92;44.01;99890.94;10374966;28;20049;-62
2022/05/12 02:15:50;;;;;;;2.45;1.30;;;;;;;20.84;45.98;99903.59;10376475;28;20053;-62
2022/05/12 02:20:52;;;;;;;2.63;1.52;;;;;;;20.84;45.85;99922.53;10374328;28;20144;-62
2022/05/12 02:25:54;;;;;;;3.53;1.10;;;;;;;20.72;45.63;99913.28;10375846;28;20519;-61
2022/05/12 02:30:56;;;;;;;2.10;1.08;;;;;;;20.74;45.79;99938.25;10375298;28;20054;-62
2022/05/12 02:35:58;;;;;;;2.10;1.20;;;;;;;20.74;46.19;99948.25;10373939;28;20064;-60
2022/05/12 02:40:59;;;;;;;2.22;1.05;;;;;;;20.79;45.58;99962.00;10376037;28;20140;-61
2022/05/12 02:46:07;;;;;;;1.35;0.98;;;;;;;20.64;46.77;99956.66;10373573;28;20049;-62
2022/05/12 02:51:10;;;;;;;2.15;1.02;;;;;;;20.48;46.62;99966.75;10374588;28;20049;-62
2022/05/12 02:56:11;;;;;;;3.67;1.40;;;;;;;20.26;48.55;99959.69;10374882;28;20045;-61
2022/05/12 03:01:13;;;;;;;3.80;1.00;;;;;;;20.24;47.55;99986.09;10374774;28;20107;-63
2022/05/12 03:06:14;;;;;;;2.00;1.33;;;;;;;20.21;49.35;99994.59;10373649;28;20049;-62
2022/05/12 03:11:16;;;;;;;3.25;1.65;;;;;;;20.30;48.66;100001.53;10372496;28;20060;-63
2022/05/12 03:16:18;;;;;;;3.35;1.15;;;;;;;20.02;48.37;99996.88;10373980;28;20072;-63
2022/05/12 03:21:20;;;;;;;4.83;1.33;;;;;;;20.03;49.83;99995.84;10381370;28;20148;-63
2022/05/12 03:26:22;;;;;;;3.20;1.42;;;;;;;19.90;49.77;100014.59;10382056;28;20133;-63
2022/05/12 03:31:23;;;;;;;4.97;1.55;;;;;;;19.99;50.30;100028.84;10380652;28;20050;-63
2022/05/12 03:36:26;;;;;;;2.88;1.20;;;;;;;20.06;50.37;100036.00;10383990;28;20060;-62
2022/05/12 03:41:27;;;;;;;5.22;1.80;;;;;;;19.94;50.09;100022.13;10373665;28;20798;-63
2022/05/12 03:46:31;;;;;;;3.55;1.48;;;;;;;20.00;50.66;100041.34;10373762;28;20127;-66
2022/05/12 03:51:33;;;;;;;3.47;1.30;;;;;;;19.87;50.85;100048.22;10373360;28;20049;-63
2022/05/12 03:56:35;;;;;;;3.78;1.17;;;;;;;19.76;51.34;100041.44;10371814;28;20601;-62
2022/05/12 04:01:37;;;;;;;5.25;1.05;;;;;;;19.87;50.83;100060.91;10372377;28;20136;-63
2022/05/12 04:06:38;;;;;;;8.05;1.60;;;;;;;19.68;51.86;100060.44;10371795;28;20136;-62
2022/05/12 04:11:40;;;;;;;2.97;1.40;;;;;;;19.70;51.85;100084.56;10370863;28;20500;-62
2022/05/12 04:16:41;;;;;;;7.78;1.40;;;;;;;19.69;51.79;100077.47;10371720;28;20049;-62
2022/05/12 04:21:43;;;;;;;3.55;1.40;;;;;;;19.78;50.77;100090.72;10368574;28;20145;-62
2022/05/12 04:26:46;;;;;;;4.88;1.15;;;;;;;19.90;51.54;100106.44;10375880;28;20128;-62
2022/05/12 04:31:47;;;;;;;3.60;1.60;;;;;;;19.85;51.40;100119.69;10379212;28;20124;-63
2022/05/12 04:36:49;;;;;;;5.07;1.63;;;;;;;20.01;52.01;100124.03;10372099;28;20121;-64
2022/05/12 04:41:50;;;;;;;3.58;1.17;;;;;;;19.71;52.88;100135.69;10386629;28;20045;-63
2022/05/12 04:46:52;;;;;;;4.63;1.35;;;;;;;19.54;52.05;100129.59;10370304;28;20053;-63
2022/05/12 04:51:56;;;;;;;3.10;1.30;;;;;;;19.83;53.01;100127.97;10369902;28;20113;-62
2022/05/12 04:56:57;;;;;;;6.43;1.35;;;;;;;20.07;52.31;100147.59;10370288;28;20953;-63
2022/05/12 05:02:00;;;;;;;4.50;1.45;;;;;;;20.11;50.88;100163.22;10371707;28;20049;-62
2022/05/12 05:07:02;;;;;;;5.93;1.77;;;;;;;19.91;51.49;100151.34;10369700;28;20111;-61
2022/05/12 05:12:04;;;;;;;3.20;1.00;;;;;;;20.04;49.93;100173.13;10370492;28;20060;-62
2022/05/12 05:17:05;;;;;;;4.15;0.85;;;;;;;19.52;49.97;100168.63;10370431;28;20045;-61
2022/05/12 05:22:08;;;;;;;3.58;0.88;;;;;;;18.93;51.27;100164.75;10369460;28;20061;-63
2022/05/12 05:27:09;;;;;;;3.83;1.08;;;;;;;19.26;52.49;100202.25;10370754;28;21165;-62
2022/05/12 05:32:12;;;;;;;1.60;0.90;;;;;;;19.46;50.71;100201.75;10371956;28;20041;-62
2022/05/12 05:37:13;;;;;;;4.07;1.13;;;;;;;19.73;50.98;100203.81;10377284;28;20128;-62
2022/05/12 05:42:17;;;;;;;3.03;1.00;;;;;;;19.92;50.44;100228.63;10376872;28;20119;-61
2022/05/12 05:47:19;;;;;;;3.95;0.88;;;;;;;19.98;49.66;100233.28;10376350;28;20060;-63
2022/05/12 05:57:43;;;;;;;4.57;1.05;;;;;;;20.28;50.90;100250.38;10376314;28;20055;-63
2022/05/12 06:02:45;;;;;;;3.25;0.90;;;;;;;20.03;48.45;100257.91;10376064;28;20063;-63
2022/05/12 06:07:47;;;;;;;2.25;0.73;;;;;;;19.83;49.97;100259.47;10376185;28;20053;-62
2022/05/12 06:12:49;;;;;;;3.67;1.02;;;;;;;19.86;50.63;100278.84;10374878;28;20056;-63
2022/05/12 06:17:50;;;;;;;4.53;1.00;;;;;;;20.04;49.53;100265.00;10376456;28;20144;-62
2022/05/12 06:22:54;;;;;;;3.67;0.90;;;;;;;19.97;49.76;100285.66;10377426;28;20045;-62
2022/05/12 06:27:55;;;;;;;3.33;0.60;;;;;;;20.22;48.09;100293.50;10389446;28;20049;-63
2022/05/12 06:32:57;;;;;;;3.10;0.60;;;;;;;20.17;47.62;100301.34;10379177;28;20091;-62
2022/05/12 06:37:59;;;;;;;3.45;1.20;;;;;;;20.02;47.37;100310.25;10373661;28;20132;-62
2022/05/12 06:43:08;;;;;;;1.95;0.70;;;;;;;19.96;48.28;100319.09;10375266;28;20136;-61
2022/05/12 06:48:10;;;;;;;2.22;0.93;;;;;;;20.07;47.90;100313.25;10375863;28;20056;-62
2022/05/12 06:53:11;;;;;;;2.53;0.60;;;;;;;20.26;46.78;100295.63;10380763;28;20137;-63
2022/05/12 06:58:17;;;;;;;2.10;0.63;;;;;;;20.36;46.81;100303.50;10373274;28;20528;-63
2022/05/12 07:03:19;;;;;;;2.15;0.60;;;;;;;20.25;46.43;100304.78;10373789;28;20057;-63
2022/05/12 07:08:21;;;;;;;2.00;0.80;;;;;;;20.84;45.70;100317.47;10372049;28;20075;-62
2022/05/12 07:13:24;;;;;;;2.45;0.63;;;;;;;21.20;45.38;100323.91;10370516;28;20137;-63
2022/05/12 07:18:25;;;;;;;2.90;0.75;;;;;;;21.00;44.64;100323.66;10371834;28;20053;-62
2022/05/12 07:29:11;;;;;;;1.92;0.65;;;;;;;21.38;44.63;100328.91;10371727;28;20468;-61
2022/05/12 07:34:13;;;;;;;3.40;0.70;;;;;;;21.45;45.09;100346.06;10370156;28;20053;-62
2022/05/12 07:39:16;;;;;;;2.17;0.80;;;;;;;21.37;44.51;100335.31;10372599;28;20053;-62
2022/05/12 07:44:19;;;;;;;2.33;0.57;;;;;;;21.36;44.62;100339.91;10372280;28;20692;-63
2022/05/12 07:49:20;;;;;;;2.63;0.80;;;;;;;21.60;44.51;100345.16;10375203;28;20049;-63
2022/05/12 07:54:23;;;;;;;2.70;0.93;;;;;;;21.76;43.99;100342.19;10371180;28;20054;-62
2022/05/12 07:59:27;;;;;;;2.65;0.93;;;;;;;21.83;44.20;100372.91;10371249;28;20155;-63
2022/05/12 08:04:29;;;;;;;3.72;1.15;;;;;;;21.43;44.79;100363.50;10372089;28;20053;-62
2022/05/12 08:09:30;;;;;;;4.32;0.80;;;;;;;21.17;45.02;100362.19;10370113;28;20052;-62
2022/05/12 08:14:31;;;;;;;4.30;0.80;;;;;;;21.64;44.44;100362.72;10372003;28;20057;-62
2022/05/12 08:19:34;;;;;;;2.53;0.70;;;;;;;21.61;44.48;100363.94;10369013;28;20420;-60
2022/05/12 08:24:40;;;;;;;3.60;0.82;;;;;;;21.98;43.31;100374.66;10369295;28;20061;-63
2022/05/12 08:29:41;;;;;;;1.67;1.10;;;;;;;21.99;42.70;100366.38;10370534;28;20736;-61
2022/05/12 08:34:44;;;;;;;2.47;0.60;;;;;;;22.13;42.34;100375.44;10372494;28;20053;-60
2022/05/12 08:39:46;;;;;;;4.50;1.05;;;;;;;21.92;42.23;100386.28;10371017;28;20768;-61
2022/05/12 08:44:48;;;;;;;3.45;0.88;;;;;;;21.84;42.55;100380.00;10371859;28;20049;-62
2022/05/12 08:49:51;;;;;;;3.15;0.80;;;;;;;22.13;41.91;100389.00;10372780;28;20128;-62
2022/05/12 08:54:57;;;;;;;2.93;0.70;;;;;;;21.92;41.38;100391.72;10364860;28;20128;-61
2022/05/12 09:00:01;;;;;;;1.95;0.85;;;;;;;21.66;41.62;100395.84;10371928;28;20480;-63
2022/05/12 09:05:11;;;;;;;3.35;0.88;;;;;;;22.00;41.11;100399.72;10363393;28;20049;-65
2022/05/12 09:10:25;;;;;;;2.17;0.70;;;;;;;22.43;39.88;100394.25;10379247;28;20033;-62
2022/05/12 09:15:34;;;;;;;1.88;0.55;;;;;;;22.46;39.05;100369.44;10377769;28;20510;-61
2022/05/12 09:20:36;;;;;;;2.15;0.47;;;;;;;22.63;38.24;100394.38;10391278;28;20061;-61
2022/05/12 09:25:39;;;;;;;3.85;0.95;;;;;;;22.72;37.37;100386.91;10376480;28;20053;-61
2022/05/12 09:30:48;;;;;;;1.95;1.00;;;;;;;22.98;37.09;100380.78;10375181;28;20072;-63
2022/05/12 09:35:56;;;;;;;1.88;0.52;;;;;;;22.76;37.89;100374.63;10375527;28;20047;-62
2022/05/12 09:41:00;;;;;;;2.85;0.63;;;;;;;22.95;36.87;100376.59;10375393;28;20041;-62
2022/05/12 09:46:18;;;;;;;;;;;;;;;23.17;36.74;100368.34;10377848;28;20413;-63
2022/05/12 09:51:22;;;;;;;1.48;0.35;;;;;;;23.79;36.95;100387.28;10374606;28;20445;-62
2022/05/12 09:56:35;;;;;;;2.70;0.90;;;;;;;24.27;34.50;100372.69;10377420;28;20972;-61
2022/05/12 10:02:03;;;;;;;1.45;0.57;;;;;;;24.31;34.89;100368.50;10375679;28;20061;-62
2022/05/12 10:12:36;;;;;;;1.73;0.45;;;;;;;23.99;36.08;100361.00;10381285;28;20467;-62
2022/05/12 10:17:45;;;;;;;4.55;0.50;;;;;;;23.96;35.29;100350.56;10384259;28;20056;-62
2022/05/12 10:22:53;;;;;;;2.67;0.50;;;;;;;24.16;35.61;100347.81;10374772;28;20703;-63
2022/05/12 10:28:02;;;;;;;4.25;1.05;;;;;;;24.58;35.54;100349.41;10375859;28;20049;-62
2022/05/12 10:33:13;;;;;;;3.53;0.90;;;;;;;24.77;35.19;100344.97;10376075;28;20045;-61
2022/05/12 10:38:14;;;;;;;3.42;0.68;;;;;;;24.95;33.87;100344.28;10376842;28;20053;-61
2022/05/12 10:43:26;;;;;;;1.73;0.50;;;;;;;25.26;32.76;100354.38;10374766;28;20132;-61
2022/05/12 10:48:43;;;;;;;7.72;0.73;;;;;;;25.41;32.28;100354.94;10372755;28;20574;-61
2022/05/12 10:53:59;;;;;;;1.80;0.50;;;;;;;25.29;32.37;100362.13;10372332;28;20049;-64
2022/05/12 10:59:19;;;;;;;3.15;0.80;;;;;;;25.29;32.75;100337.59;10373264;28;20050;-63
2022/05/12 11:04:35;;;;;;;2.85;0.55;;;;;;;25.90;32.60;100338.06;10371982;28;20650;-61
2022/05/12 11:09:46;;;;;;;2.30;0.50;;;;;;;25.58;32.03;100310.81;10372898;28;20076;-62
2022/05/12 11:14:57;;;;;;;2.40;0.50;;;;;;;26.10;31.20;100327.81;10372116;28;20057;-62
2022/05/12 11:20:16;;;;;;;1.38;0.35;;;;;;;26.26;30.69;100309.22;10371288;28;20120;-61
2022/05/12 11:25:34;;;;;;;1.85;0.40;;;;;;;26.75;29.63;100301.97;10373349;28;20041;-61
2022/05/12 11:30:37;;;;;;;2.67;0.50;;;;;;;26.70;29.12;100315.47;10370014;28;20427;-62
2022/05/12 11:35:45;;;;;;;1.35;0.30;;;;;;;26.69;30.04;100291.94;10374255;28;20041;-61
2022/05/12 11:40:49;;;;;;;4.10;0.60;;;;;;;26.93;29.71;100311.19;10370035;28;20050;-61
2022/05/12 11:46:16;;;;;;;2.00;0.43;;;;;;;27.13;28.11;100303.56;10376535;28;20049;-62
2022/05/12 11:51:38;;;;;;;1.25;0.40;;;;;;;27.16;28.80;100303.09;10380913;28;20060;-62
2022/05/12 11:56:55;;;;;;;1.80;0.30;;;;;;;26.91;28.90;100294.19;10374827;28;20037;-62
2022/05/12 12:02:05;;;;;;;2.28;0.47;;;;;;;26.90;27.95;100298.00;10371339;28;20138;-61
2022/05/12 12:07:13;;;;;;;2.20;0.30;;;;;;;27.28;28.63;100289.47;10371673;28;20155;-62
2022/05/12 12:12:41;;;;;;;3.22;0.20;;;;;;;27.45;28.45;100289.66;10370326;28;20053;-61
2022/05/12 12:17:43;;;;;;;1.73;0.60;;;;;;;27.26;27.49;100279.81;10362302;28;20065;-62
2022/05/12 12:22:47;;;;;;;2.77;0.40;;;;;;;27.32;27.84;100278.88;10369937;28;20052;-62
2022/05/12 12:27:57;;;;;;;4.75;0.47;;;;;;;27.38;28.01;100277.16;10371112;28;20743;-62
2022/05/12 12:33:19;;;;;;;1.25;0.45;;;;;;;27.29;28.03;100269.28;10372189;28;20049;-62
2022/05/12 12:39:02;;;;;;;2.38;0.65;;;;;;;26.97;27.23;100272.25;10372389;28;20169;-62
2022/05/12 12:44:07;;;;;;;3.33;0.45;;;;;;;26.95;27.62;100279.84;10369620;28;20162;-61
2022/05/12 12:49:16;;;;;;;2.78;0.65;;;;;;;26.41;28.38;100263.28;10371448;28;20467;-61
2022/05/12 13:00:04;;;;;;;2.55;0.28;;;;;;;27.09;29.00;100263.28;10370236;28;20053;-61
2022/05/12 13:05:10;;;;;;;1.40;0.30;;;;;;;27.58;28.28;100222.16;10369206;28;20089;-61
2022/05/12 13:10:16;;;;;;;2.75;0.60;;;;;;;27.41;27.43;100255.66;10371093;28;20091;-61
2022/05/12 13:15:20;;;;;;;2.65;0.30;;;;;;;27.21;28.27;100253.22;10368943;28;20719;-61
2022/05/12 13:20:26;;;;;;;2.60;0.40;;;;;;;27.20;27.45;100239.78;10369390;28;20044;-61
2022/05/12 13:25:31;;;;;;;0.77;0.20;;;;;;;27.25;28.08;100237.16;10370372;28;20224;-61
2022/05/12 13:30:42;;;;;;;3.80;1.05;;;;;;;27.19;27.82;100224.44;10369628;28;20928;-61
2022/05/12 13:35:56;;;;;;;2.67;0.35;;;;;;;26.83;27.29;100237.16;10370395;28;20053;-61
2022/05/12 13:41:01;;;;;;;3.67;0.60;;;;;;;26.52;28.35;100230.84;10368596;28;20140;-61
2022/05/12 13:46:10;;;;;;;2.03;0.57;;;;;;;26.56;28.51;100210.22;10370479;28;20120;-64
2022/05/12 13:51:48;;;;;;;1.23;0.30;;;;;;;26.47;28.97;100212.44;10370049;28;20073;-62
2022/05/12 13:57:31;;;;;;;2.17;0.40;;;;;;;26.43;29.14;100184.75;10377400;28;20038;-62
2022/05/12 14:02:36;;;;;;;2.25;0.40;;;;;;;26.52;28.49;100181.72;10383211;28;20045;-62
2022/05/12 14:07:38;;;;;;;2.58;0.57;;;;;;;26.30;28.30;100201.28;10386378;28;20053;-62
2022/05/12 14:19:13;;;;;;;;;;;;;;;26.00;28.34;100206.69;10384980;28;20516;-63
2022/05/12 14:23:21;;;;;;;3.40;0.57;;;;;;;26.09;28.54;100184.34;10374357;28;20714;-61
2022/05/12 14:28:22;;;;;;;3.03;0.50;;;;;;;26.11;28.71;100186.84;10374765;28;20047;-60
2022/05/12 14:33:31;;;;;;;3.22;0.40;;;;;;;25.96;28.21;100173.56;10373139;28;20128;-62
2022/05/12 14:38:34;;;;;;;3.03;0.50;;;;;;;26.06;28.55;100187.53;10372952;28;20179;-62
2022/05/12 14:43:36;;;;;;;2.42;0.65;;;;;;;25.59;28.81;100163.44;10374052;28;20041;-62
2022/05/12 14:48:43;;;;;;;2.78;0.38;;;;;;;25.51;29.44;100191.00;10374139;28;20049;-62
2022/05/12 14:53:45;;;;;;;1.73;0.40;;;;;;;25.57;29.59;100186.53;10374411;28;20729;-64
2022/05/12 14:58:46;;;;;;;3.08;1.02;;;;;;;25.82;29.18;100172.88;10374283;28;20500;-63
2022/05/12 15:03:51;;;;;;;2.03;0.50;;;;;;;25.74;29.47;100175.88;10371585;28;20053;-63
2022/05/12 15:08:52;;;;;;;1.50;0.57;;;;;;;25.63;29.04;100168.47;10370352;28;20058;-63
2022/05/12 15:13:54;;;;;;;2.70;0.80;;;;;;;25.49;29.33;100173.19;10373712;28;20061;-64
2022/05/12 15:18:55;;;;;;;1.35;0.35;;;;;;;25.49;29.33;100162.28;10372775;28;20133;-63
2022/05/12 15:23:57;;;;;;;3.42;0.30;;;;;;;25.33;29.20;100133.75;10373630;28;20098;-62
2022/05/12 15:28:58;;;;;;;2.30;0.47;;;;;;;25.29;29.36;100163.28;10374828;28;20179;-62
2022/05/12 15:34:00;;;;;;;3.63;0.63;;;;;;;25.21;30.01;100166.28;10360252;28;20057;-64
2022/05/12 15:39:04;;;;;;;2.20;0.80;;;;;;;25.27;29.92;100159.94;10371292;28;20123;-64
2022/05/12 15:44:10;;;;;;;3.33;0.85;;;;;;;25.26;30.27;100155.53;10369924;28;20817;-64
2022/05/12 15:49:33;;;;;;;2.40;0.50;;;;;;;25.14;29.59;100170.94;10368525;28;20034;-64
2022/05/12 15:54:35;;;;;;;2.13;0.52;;;;;;;25.00;30.00;100160.16;10370227;28;20128;-64
2022/05/12 15:59:37;;;;;;;4.33;0.63;;;;;;;24.95;30.08;100151.84;10370207;28;20052;-64
2022/05/12 16:04:38;;;;;;;2.43;0.43;;;;;;;25.05;29.64;100167.66;10370282;28;20678;-64
2022/05/12 16:09:40;;;;;;;2.15;0.40;;;;;;;25.06;29.18;100150.28;10370585;28;20067;-64
2022/05/12 16:14:48;;;;;;;2.00;0.47;;;;;;;25.25;29.18;100153.88;10371087;28;20128;-65
2022/05/12 16:19:50;;;;;;;4.22;0.60;;;;;;;25.16;28.45;100133.41;10369364;28;20136;-63
2022/05/12 16:24:51;;;;;;;3.03;0.70;;;;;;;25.13;28.91;100125.69;10369053;28;20041;-63
2022/05/12 16:29:57;;;;;;;2.50;0.50;;;;;;;25.14;28.68;100139.09;10372795;28;20053;-63
2022/05/12 16:35:01;;;;;;;1.58;0.40;;;;;;;25.08;28.74;100128.28;10374122;28;20056;-63
2022/05/12 16:40:04;;;;;;;3.40;0.57;;;;;;;25.09;28.98;100135.41;10369569;28;20684;-62
2022/05/12 16:45:06;;;;;;;2.95;1.15;;;;;;;24.94;28.92;100127.56;10372781;28;20131;-63
2022/05/12 16:50:09;;;;;;;1.70;0.40;;;;;;;24.86;29.18;100126.75;10374530;28;20073;-62
2022/05/12 16:55:12;;;;;;;3.55;0.93;;;;;;;24.85;28.84;100129.72;10368161;28;20046;-64
2022/05/12 17:00:21;;;;;;;2.50;0.40;;;;;;;24.74;28.99;100111.34;10369549;28;20054;-63
2022/05/12 17:05:23;;;;;;;3.35;0.65;;;;;;;24.79;29.01;100136.03;10369419;28;20181;-64
2022/05/12 17:10:25;;;;;;;2.97;0.60;;;;;;;24.85;28.12;100141.41;10369947;28;20049;-62
2022/05/12 17:15:26;;;;;;;6.22;1.10;;;;;;;24.73;28.39;100137.75;10370301;28;20037;-64
2022/05/12 17:20:28;;;;;;;1.95;0.60;;;;;;;24.39;28.74;100093.53;10372869;28;22139;-64
2022/05/12 17:25:30;;;;;;;2.03;0.60;;;;;;;24.68;29.04;100135.69;10370494;28;20045;-62
2022/05/12 17:30:31;;;;;;;1.73;0.50;;;;;;;24.59;29.56;100142.44;10373748;28;20761;-64
2022/05/12 17:35:37;;;;;;;2.30;0.50;;;;;;;24.58;29.30;100127.16;10375273;28;20053;-62
2022/05/12 17:40:38;;;;;;;2.72;0.32;;;;;;;24.49;29.42;100125.72;10375776;28;20053;-63
2022/05/12 17:45:40;;;;;;;3.53;0.70;;;;;;;24.29;29.53;100134.81;10377107;28;20834;-63
2022/05/12 17:50:42;;;;;;;1.77;0.32;;;;;;;24.10;29.82;100138.47;10375658;28;20054;-63
2022/05/12 17:55:46;;;;;;;1.58;0.60;;;;;;;23.99;29.71;100154.41;10374509;28;20103;-64
2022/05/12 18:00:48;;;;;;;2.38;0.35;;;;;;;23.89;30.06;100140.41;10375986;28;20129;-63
2022/05/12 18:05:50;;;;;;;3.00;0.60;;;;;;;23.74;30.75;100145.25;10375775;28;20060;-64
2022/05/12 18:10:52;;;;;;;3.05;0.65;;;;;;;23.73;31.19;100146.28;10374510;28;20053;-64
2022/05/12 18:15:55;;;;;;;1.90;0.40;;;;;;;23.67;31.19;100149.84;10372470;28;20045;-63
2022/05/12 18:20:56;;;;;;;3.30;0.52;;;;;;;23.46;31.52;100127.31;10374174;28;20120;-63
2022/05/12 18:25:58;;;;;;;3.30;0.40;;;;;;;23.48;31.05;100146.97;10375028;28;20087;-63
2022/05/12 18:30:59;;;;;;;2.10;0.60;;;;;;;23.32;30.93;100155.56;10373575;28;20064;-63
2022/05/12 18:36:01;;;;;;;2.17;0.47;;;;;;;23.24;30.93;100157.44;10376279;28;20428;-63
2022/05/12 18:41:08;;;;;;;1.35;0.50;;;;;;;23.27;30.76;100157.00;10373877;28;20048;-63
2022/05/12 18:46:10;;;;;;;2.55;0.50;;;;;;;23.14;30.79;100156.19;10375817;28;20041;-63
2022/05/12 18:51:11;;;;;;;2.50;0.93;;;;;;;22.95;31.11;100143.19;10374507;28;20607;-61
2022/05/12 18:56:12;;;;;;;3.28;0.68;;;;;;;23.04;31.13;100167.41;10374660;28;20049;-62
2022/05/12 19:01:14;;;;;;;1.30;0.40;;;;;;;22.94;31.56;100184.94;10372398;28;20196;-63
2022/05/12 19:06:16;;;;;;;4.60;1.00;;;;;;;22.89;31.60;100195.56;10372957;28;21185;-62
2022/05/12 19:11:17;;;;;;;2.00;0.60;;;;;;;22.78;31.87;100182.63;10373819;28;20633;-63
2022/05/12 19:16:18;;;;;;;1.67;0.57;;;;;;;22.78;32.21;100197.00;10386721;28;20080;-63
2022/05/12 19:21:20;;;;;;;2.80;0.63;;;;;;;22.69;32.64;100190.09;10373079;28;20056;-65
2022/05/12 19:26:21;;;;;;;2.22;0.57;;;;;;;22.73;32.60;100209.53;10378093;28;20053;-63
2022/05/12 19:31:23;;;;;;;2.22;0.85;;;;;;;22.55;32.88;100215.53;10378829;28;20063;-64
2022/05/12 19:36:24;;;;;;;1.38;0.63;;;;;;;22.43;33.25;100204.44;10376283;28;20492;-62
2022/05/12 19:41:26;;;;;;;1.13;0.50;;;;;;;22.35;33.63;100216.28;10374531;28;20124;-63
2022/05/12 19:46:27;;;;;;;3.33;0.82;;;;;;;22.29;33.75;100232.47;10364647;28;20057;-64
2022/05/12 19:51:28;;;;;;;2.83;0.60;;;;;;;22.18;34.57;100229.28;10370600;28;20091;-63
2022/05/12 19:56:30;;;;;;;2.30;0.47;;;;;;;22.26;34.25;100241.84;10375406;28;20134;-62
2022/05/12 20:01:31;;;;;;;2.55;0.70;;;;;;;22.05;34.50;100240.91;10388165;28;20756;-63
2022/05/12 20:06:33;;;;;;;3.45;0.50;;;;;;;22.10;34.73;100259.28;10383531;28;20096;-62
2022/05/12 20:11:34;;;;;;;3.17;0.70;;;;;;;21.97;35.69;100270.03;10372731;28;20041;-63
2022/05/12 20:16:35;;;;;;;4.15;1.75;;;;;;;22.02;35.78;100272.97;10372972;28;20132;-63
2022/05/12 20:21:37;;;;;;;3.97;0.60;;;;;;;22.04;36.36;100260.91;10373986;28;20134;-62
2022/05/12 20:26:40;;;;;;;2.20;0.50;;;;;;;21.92;35.78;100261.66;10374418;28;20049;-64
2022/05/12 20:31:41;;;;;;;3.65;0.70;;;;;;;21.86;36.09;100268.72;10371139;28;20198;-63
2022/05/12 20:36:43;;;;;;;3.55;1.00;;;;;;;21.83;37.80;100272.66;10370759;28;20125;-63
2022/05/12 20:41:46;;;;;;;3.90;0.70;;;;;;;21.79;36.59;100262.41;10371134;28;20140;-63
2022/05/12 20:46:47;;;;;;;2.57;0.77;;;;;;;21.79;37.61;100274.06;10374516;28;20049;-64
2022/05/12 20:51:49;;;;;;;1.95;0.50;;;;;;;21.69;36.71;100262.72;10377756;28;20384;-64
2022/05/12 20:56:50;;;;;;;1.90;0.68;;;;;;;21.61;37.37;100252.88;10384835;28;20073;-64
2022/05/12 21:01:52;;;;;;;3.03;0.60;;;;;;;21.65;38.08;100273.13;10376057;28;20076;-63
2022/05/12 21:06:53;;;;;;;2.95;0.68;;;;;;;21.66;38.04;100279.38;10384442;28;20134;-63
2022/05/12 21:11:55;;;;;;;1.48;0.70;;;;;;;21.61;38.33;100298.09;10384544;28;20152;-62
2022/05/12 21:16:56;;;;;;;4.05;0.70;;;;;;;21.61;37.93;100293.50;10383904;28;20140;-63
2022/05/12 21:21:58;;;;;;;2.75;0.60;;;;;;;21.55;37.65;100302.41;10384039;28;20512;-65
2022/05/12 21:26:59;;;;;;;1.92;0.50;;;;;;;21.33;38.98;100312.38;10383890;28;20563;-63
2022/05/12 21:32:01;;;;;;;2.20;0.60;;;;;;;21.28;38.47;100307.53;10382873;28;20068;-63
2022/05/12 21:37:04;;;;;;;1.70;0.88;;;;;;;21.08;40.73;100306.50;10385853;28;20049;-63
2022/05/12 21:42:06;;;;;;;2.17;0.73;;;;;;;21.27;40.32;100319.41;10396753;28;20503;-63
2022/05/12 21:47:08;;;;;;;2.80;0.70;;;;;;;21.00;39.93;100308.28;10383893;28;20132;-62
2022/05/12 21:52:23;;;;;;;4.70;1.20;;;;;;;20.90;40.33;100301.50;10383689;28;20057;-64
2022/05/12 22:02:44;;;;;;;2.53;1.05;;;;;;;21.12;40.40;100321.31;10381889;28;20045;-63
2022/05/12 22:07:45;;;;;;;2.75;0.98;;;;;;;21.04;41.74;100314.16;10382608;28;20115;-63
2022/05/12 22:12:47;;;;;;;4.55;1.00;;;;;;;20.98;40.31;100331.97;10384576;28;20459;-61
2022/05/12 22:17:48;;;;;;;3.58;0.90;;;;;;;20.58;40.61;100328.75;10376639;28;20063;-63
2022/05/12 22:22:49;;;;;;;2.05;0.90;;;;;;;20.24;40.95;100313.09;10377498;28;20045;-63
2022/05/12 22:27:51;;;;;;;3.30;1.20;;;;;;;20.44;41.00;100325.00;10376431;28;20069;-63
2022/05/12 22:32:53;;;;;;;4.07;1.38;;;;;;;20.42;42.37;100343.28;10376006;28;20049;-64
2022/05/12 22:37:54;;;;;;;1.58;1.20;;;;;;;20.50;42.14;100342.34;10374215;28;20154;-63
2022/05/12 22:42:55;;;;;;;2.47;1.33;;;;;;;20.65;41.99;100353.16;10373539;28;20045;-63
2022/05/12 22:47:57;;;;;;;2.13;1.17;;;;;;;20.55;41.70;100331.84;10374923;28;20061;-65
2022/05/12 22:52:58;;;;;;;2.42;1.48;;;;;;;20.56;43.44;100360.53;10375429;28;20053;-63
2022/05/12 22:57:59;;;;;;;3.30;1.33;;;;;;;20.55;41.89;100353.47;10375058;28;20053;-63
2022/05/12 23:03:01;;;;;;;3.80;1.95;;;;;;;20.45;42.72;100342.09;10375256;28;20063;-64
2022/05/12 23:08:03;;;;;;;2.47;1.90;;;;;;;20.42;42.25;100353.28;10374631;28;20053;-64
2022/05/12 23:13:05;;;;;;;3.53;1.80;;;;;;;20.37;42.29;100356.53;10376165;28;20064;-64
2022/05/12 23:18:07;;;;;;;2.08;1.45;;;;;;;20.30;42.53;100355.59;10376705;28;20156;-64
2022/05/12 23:23:09;;;;;;;4.28;1.75;;;;;;;20.20;43.03;100355.84;10377481;28;20129;-64
2022/05/12 23:28:10;;;;;;;2.85;1.42;;;;;;;20.18;43.50;100354.38;10378409;28;20049;-64
2022/05/12 23:33:12;;;;;;;1.92;1.73;;;;;;;20.09;43.07;100349.03;10410574;28;20046;-62
2022/05/12 23:38:13;;;;;;;3.58;1.92;;;;;;;19.95;42.91;100341.72;10381682;28;20053;-63
2022/05/12 23:43:14;;;;;;;4.60;2.00;;;;;;;19.93;43.35;100343.78;10375884;28;20045;-64
2022/05/12 23:48:16;;;;;;;2.35;1.58;;;;;;;19.80;43.20;100333.56;10376855;28;20059;-64
2022/05/12 23:53:18;;;;;;;4.18;1.85;;;;;;;19.84;43.22;100351.09;10372143;28;20783;-65
2022/05/12 23:58:19;;;;;;;2.50;1.60;;;;;;;19.81;43.76;100358.75;10373652;28;20045;-64
